Flight Track Log - Related Links

Times and Time Zones

All times are in EDT time to prevent confusion due to time zone crossing. See the ABX921 flight status page for this flight to view local times or setup timezone preferences in your user account.

Time Position Orientation Groundspeed Altitude Reporting Facility
EDT Latitude Longitude Course Direction KTS MPH feet Rate Location/Type
Wed 10:54:32 PM 26.2842 -97.6433 19° North 171 197 2,500  Level Houston Center
Wed 10:55:08 PM 26.3189 -97.6328 15° North 196 226 3,500 1,636 Climbing Houston Center
Wed 10:55:27 PM 26.3394 -97.6289 10° North 237 273 4,000 2,164 Climbing Houston Center
Wed 10:56:09 PM 26.3903 -97.6128 16° North 260 299 5,700 2,680 Climbing Houston Center
Wed 10:57:10 PM 26.4708 -97.5847 17° North 280 322 8,600 2,410 Climbing Houston Center
Wed 10:58:11 PM 26.5500 -97.5578 17° North 294 338 10,600 1,770 Climbing Houston Center
Wed 10:59:12 PM 26.6458 -97.5417 North 349 402 12,200 2,213 Climbing Houston Center
Wed 11:00:13 PM 26.7506 -97.5308 North 373 429 15,100 2,727 Climbing Houston Center
Wed 11:01:13 PM 26.8506 -97.4733 27° Northeast 401 461 17,700 2,579 Climbing Houston Center
Wed 11:02:14 PM 26.9611 -97.4064 28° Northeast 419 482 20,300 2,115 Climbing Houston Center
Wed 11:03:15 PM 27.0453 -97.3569 28° Northeast 424 488 22,000 2,164 Climbing Houston Center
Wed 11:04:16 PM 27.1756 -97.2775 28° Northeast 439 505 24,700 2,311 Climbing Houston Center
Wed 11:05:17 PM 27.2892 -97.2089 28° Northeast 456 525 26,700 1,082 Climbing Houston Center
Wed 11:06:18 PM 27.4061 -97.1392 28° Northeast 471 542 26,900 148 Climbing Houston Center
Wed 11:07:19 PM 27.5150 -97.0742 28° Northeast 476 548 27,000 148 Climbing Houston Center
Wed 11:08:20 PM 27.6306 -97.0036 28° Northeast 474 545 27,200 934 Climbing Houston Center
Wed 11:09:21 PM 27.7469 -96.9328 28° Northeast 476 548 28,900 1,574 Climbing Houston Center
Wed 11:10:22 PM 27.8678 -96.8606 28° Northeast 485 558 30,400 1,587 Climbing Houston Center
Wed 11:11:22 PM 27.9908 -96.7836 29° Northeast 499 574 32,100 1,240 Climbing Houston Center
Wed 11:12:23 PM 28.1386 -96.6953 28° Northeast 502 578 32,900 1,180 Climbing Houston Center
Wed 11:13:24 PM 28.2614 -96.6192 29° Northeast 504 580 34,500 1,426 Climbing Houston Center
Wed 11:14:25 PM 28.3844 -96.5450 28° Northeast 503 579 35,800 1,279 Climbing Houston Center
Wed 11:15:26 PM 28.5078 -96.4683 29° Northeast 506 582 37,100 1,082 Climbing Houston Center
Wed 11:16:27 PM 28.6322 -96.3892 29° Northeast 512 589 38,000 942 Climbing Houston Center
Wed 11:17:27 PM 28.7578 -96.3106 29° Northeast 517 595 39,000 446 Climbing Houston Center
Wed 11:18:28 PM 28.8794 -96.2189 33° Northeast 525 604 38,900 -49 Descending Houston Center
Wed 11:19:29 PM 28.9972 -96.1214 36° Northeast 525 604 38,900  Level Houston Center
Wed 11:20:30 PM 29.1164 -96.0275 35° Northeast 523 602 38,900 49 Level Houston Center
Wed 11:21:31 PM 29.2417 -95.9264 35° Northeast 522 601 39,000 49 Climbing Houston Center
Wed 11:22:32 PM 29.3603 -95.8306 35° Northeast 521 600 39,000  Level Houston Center
Wed 11:23:32 PM 29.4792 -95.7356 35° Northeast 520 598 39,000  Level Houston Center
Wed 11:24:33 PM 29.5981 -95.6394 35° Northeast 519 597 39,000  Level Houston Center
Wed 11:25:34 PM 29.7189 -95.5439 34° Northeast 522 601 39,000  Level Houston Center
Wed 11:26:35 PM 29.8400 -95.4450 35° Northeast 525 604 39,000  Level Houston Center
Wed 11:27:36 PM 29.9600 -95.3472 35° Northeast 522 601 39,000  Level Houston Center
Wed 11:28:37 PM 30.0792 -95.2536 34° Northeast 516 594 39,000  Level Houston Center
Wed 11:29:37 PM 30.2000 -95.1644 33° Northeast 515 593 39,000  Level Houston Center
Wed 11:30:38 PM 30.3186 -95.0747 33° Northeast 503 579 39,000  Level Houston Center
Wed 11:31:39 PM 30.4478 -94.9733 34° Northeast 506 582 39,000  Level Houston Center
Wed 11:32:40 PM 30.5644 -94.8825 34° Northeast 507 583 39,000  Level Houston Center
Wed 11:33:41 PM 30.6808 -94.7908 34° Northeast 506 582 39,000  Level Houston Center
Wed 11:34:41 PM 30.7989 -94.7000 33° Northeast 508 585 39,000  Level Houston Center
Wed 11:35:42 PM 30.9142 -94.6100 34° Northeast 503 579 39,000  Level Houston Center
Wed 11:36:43 PM 31.0317 -94.5186 34° Northeast 513 590 39,000  Level Houston Center
Wed 11:37:44 PM 31.1700 -94.4108 34° Northeast 508 585 39,000  Level Houston Center
Wed 11:38:30 PM 31.2636 -94.3392 33° Northeast 510 587 39,000  Level Fort Worth Center
Wed 11:39:30 PM 31.3803 -94.2478 34° Northeast 515 593 39,000  Level Fort Worth Center
Wed 11:40:30 PM 31.4969 -94.1561 34° Northeast 515 593 39,000  Level Fort Worth Center
Wed 11:41:30 PM 31.6158 -94.0664 33° Northeast 510 587 39,000  Level Fort Worth Center
Wed 11:42:30 PM 31.7303 -93.9769 34° Northeast 502 578 39,000  Level Fort Worth Center
Wed 11:43:30 PM 31.8467 -93.8844 34° Northeast 502 578 39,000  Level Fort Worth Center
Wed 11:44:30 PM 31.9650 -93.7869 35° Northeast 508 585 39,000  Level Fort Worth Center
Wed 11:45:30 PM 32.0833 -93.6964 33° Northeast 502 578 39,000  Level Fort Worth Center
Wed 11:46:30 PM 32.1872 -93.6039 37° Northeast 502 578 39,000  Level Fort Worth Center
Wed 11:47:30 PM 32.3033 -93.5128 34° Northeast 507 583 39,000  Level Fort Worth Center
Wed 11:48:30 PM 32.4214 -93.4192 34° Northeast 507 583 39,000  Level Fort Worth Center
Wed 11:49:30 PM 32.5394 -93.3253 34° Northeast 507 583 39,000  Level Fort Worth Center
Wed 11:50:30 PM 32.6572 -93.2286 35° Northeast 507 583 39,000  Level Fort Worth Center
Wed 11:51:30 PM 32.7711 -93.1369 34° Northeast 499 574 39,000  Level Fort Worth Center
Wed 11:52:30 PM 32.8850 -93.0472 33° Northeast 499 574 39,000  Level Fort Worth Center
Wed 11:53:30 PM 32.9967 -92.9578 34° Northeast 493 567 39,000  Level Fort Worth Center
Wed 11:55:09 PM 33.1781 -92.8119 34° Northeast 491 565 39,000  Level Memphis Center
Wed 11:56:09 PM 33.2975 -92.6886 41° Northeast 499 574 39,000  Level Memphis Center
Wed 11:57:09 PM 33.3875 -92.5517 52° Northeast 505 581 39,000  Level Memphis Center
Wed 11:58:09 PM 33.4753 -92.4192 52° Northeast 512 589 39,000  Level Memphis Center
Wed 11:59:09 PM 33.5692 -92.2919 48° Northeast 512 589 39,000  Level Memphis Center
Thu 12:00:09 AM 33.6672 -92.1667 47° Northeast 512 589 39,000  Level Memphis Center
Thu 12:01:09 AM 33.7525 -92.0311 53° Northeast 506 582 39,000  Level Memphis Center
Thu 12:02:09 AM 33.8378 -91.8903 54° Northeast 511 588 39,000  Level Memphis Center
Thu 12:03:09 AM 33.9228 -91.7542 53° Northeast 511 588 39,000  Level Memphis Center
Thu 12:04:09 AM 33.9950 -91.6325 54° Northeast 504 580 39,000  Level Memphis Center
Thu 12:05:09 AM 34.0800 -91.4933 54° Northeast 509 586 39,000  Level Memphis Center
Thu 12:06:09 AM 34.1667 -91.3489 54° Northeast 520 598 39,000  Level Memphis Center
Thu 12:07:09 AM 34.2511 -91.2089 54° Northeast 515 593 39,000  Level Memphis Center
Thu 12:08:09 AM 34.3461 -91.0539 53° Northeast 521 600 39,000  Level Memphis Center
Thu 12:09:09 AM 34.4344 -90.9111 53° Northeast 522 601 39,000  Level Memphis Center
Thu 12:10:09 AM 34.5183 -90.7681 55° Northeast 522 601 39,000  Level Memphis Center
Thu 12:11:09 AM 34.6147 -90.6397 48° Northeast 514 592 39,000  Level Memphis Center
Thu 12:12:09 AM 34.7256 -90.5417 36° Northeast 499 574 39,000  Level Memphis Center
Thu 12:13:09 AM 34.8383 -90.4431 36° Northeast 499 574 39,000  Level Memphis Center
Thu 12:14:09 AM 34.9447 -90.3292 41° Northeast 499 574 39,000  Level Memphis Center
Thu 12:15:09 AM 35.0386 -90.2175 44° Northeast 506 582 39,000  Level Memphis Center
Thu 12:16:09 AM 35.1386 -90.0956 45° Northeast 506 582 39,000  Level Memphis Center
Thu 12:17:09 AM 35.2403 -89.9731 45° Northeast 506 582 39,000  Level Memphis Center
Thu 12:18:09 AM 35.3422 -89.8481 45° Northeast 515 593 39,000  Level Memphis Center
Thu 12:19:09 AM 35.4519 -89.7122 45° Northeast 510 587 39,000  Level Memphis Center
Thu 12:20:09 AM 35.5536 -89.5889 45° Northeast 510 587 39,000  Level Memphis Center
Thu 12:21:09 AM 35.6528 -89.4653 45° Northeast 510 587 39,000  Level Memphis Center
Thu 12:22:09 AM 35.7497 -89.3389 47° Northeast 504 580 39,000  Level Memphis Center
Thu 12:23:09 AM 35.8511 -89.2172 44° Northeast 504 580 39,000  Level Memphis Center
Thu 12:24:09 AM 35.9519 -89.0928 45° Northeast 504 580 39,000  Level Memphis Center
Thu 12:25:09 AM 36.0547 -88.9656 45° Northeast 510 587 39,000  Level Memphis Center
Thu 12:26:09 AM 36.1556 -88.8378 46° Northeast 510 587 39,000  Level Memphis Center
Thu 12:27:09 AM 36.2581 -88.7097 45° Northeast 510 587 39,000  Level Memphis Center
Thu 12:28:09 AM 36.3628 -88.5839 44° Northeast 510 587 39,000  Level Memphis Center
Thu 12:29:09 AM 36.4631 -88.4578 45° Northeast 510 587 39,000  Level Memphis Center
Thu 12:30:09 AM 36.5672 -88.3261 45° Northeast 510 587 39,000  Level Memphis Center
Thu 12:31:09 AM 36.6692 -88.1969 45° Northeast 510 587 39,000  Level Memphis Center
Thu 12:32:09 AM 36.7711 -88.0672 46° Northeast 510 587 39,000  Level Memphis Center
Thu 12:33:09 AM 36.8708 -87.9400 46° Northeast 515 593 39,000  Level Memphis Center
Thu 12:34:09 AM 36.9722 -87.8094 46° Northeast 515 593 39,000  Level Memphis Center
Thu 12:35:45 AM 37.1286 -87.6064 46° Northeast 525 604 39,000  Level Indianapolis Center
Thu 12:36:46 AM 37.2306 -87.4736 46° Northeast 524 603 39,000  Level Indianapolis Center
Thu 12:37:46 AM 37.3325 -87.3392 46° Northeast 525 604 39,000  Level Indianapolis Center
Thu 12:38:47 AM 37.4344 -87.2044 46° Northeast 525 604 39,000  Level Indianapolis Center
Thu 12:39:48 AM 37.5389 -87.0642 47° Northeast 531 611 39,000  Level Indianapolis Center
Thu 12:40:48 AM 37.6403 -86.9289 47° Northeast 531 611 39,000 -149 Level Indianapolis Center
Thu 12:41:49 AM 37.7419 -86.7950 46° Northeast 530 610 38,700 -1,537 Descending Indianapolis Center
Thu 12:42:49 AM 37.8464 -86.6556 46° Northeast 543 625 35,900 -3,025 Descending Indianapolis Center
Thu 12:43:50 AM 37.9522 -86.5119 47° Northeast 559 643 32,600 -3,174 Descending Indianapolis Center
Thu 12:44:50 AM 38.0586 -86.3689 47° Northeast 560 644 29,500 -2,926 Descending Indianapolis Center
Thu 12:45:51 AM 38.1628 -86.2267 47° Northeast 555 639 26,700 -2,826 Descending Indianapolis Center
Thu 12:46:51 AM 38.2639 -86.0867 47° Northeast 541 623 23,800 -2,826 Descending Indianapolis Center
Thu 12:47:52 AM 38.3606 -85.9553 47° Northeast 510 587 21,000 -2,628 Descending Indianapolis Center
Thu 12:48:52 AM 38.4500 -85.8311 47° Northeast 471 542 18,500 -2,579 Descending Indianapolis Center
Thu 12:49:53 AM 38.5278 -85.7228 47° Northeast 419 482 15,800 -2,281 Descending Indianapolis Center
Thu 12:50:53 AM 38.5972 -85.6236 48° Northeast 378 435 13,900 -1,934 Descending Indianapolis Center
Thu 12:51:54 AM 38.6464 -85.5156 60° Northeast 362 417 11,900 -1,438 Descending Indianapolis Center
Thu 12:52:54 AM 38.6944 -85.4075 60° Northeast 350 403 11,000 -595 Descending Indianapolis Center
Thu 12:53:55 AM 38.7172 -85.2811 77° East 312 359 10,700 -793 Descending Indianapolis Center
Thu 12:54:55 AM 38.7369 -85.1764 76° East 304 350 9,400 -843 Descending Indianapolis Center
Thu 12:55:56 AM 38.7556 -85.0764 77° East 289 333 9,000 -248 Descending Indianapolis Center
Thu 12:56:56 AM 38.7725 -84.9994 74° East 229 264 8,900 -550 Descending Indianapolis Center
Thu 12:57:56 AM 38.8225 -85.0069 353° North 190 219 7,900 -942 Descending Indianapolis Center
Thu 12:58:57 AM 38.8722 -85.0264 343° North 184 212 7,000 -446 Descending Indianapolis Center
Thu 12:59:57 AM 38.9225 -85.0483 341° North 188 216 7,000 -248 Level Indianapolis Center
Thu 01:00:58 AM 38.9719 -85.0689 342° North 187 215 6,500 -843 Descending Indianapolis Center
Thu 01:01:58 AM 39.0186 -85.0614 North 180 207 5,300 -1,091 Descending Indianapolis Center
Thu 01:02:59 AM 39.0322 -84.9978 75° East 186 214 4,300 -694 Descending Indianapolis Center
Thu 01:03:59 AM 39.0450 -84.9344 75° East 185 213 3,900 -400 Descending Indianapolis Center
Thu 01:04:59 AM 39.0472 -84.8789 87° East 185 213 3,500 -434 Descending Indianapolis Center
Thu 01:05:22 AM 39.0500 -84.8333 85° East 182 209 3,300 -930 Descending Cincinnati TRACON
Thu 01:06:10 AM 39.0500 -84.7833 90° East 192 221 2,400 -944 Descending Cincinnati TRACON
Thu 01:07:10 AM 39.0500 -84.7333 90° East 139 160 1,600 -800 Descending Cincinnati TRACON
Thu 01:09:00 AM 39.0333 -84.6667 38° Northeast  Level FlightAware Approximate
Thu 01:16:00 AM 39.0488 -84.6678 38° Northeast  Level Estimated

Login

Don't have an account? Register now (free) for customized features, flight alerts, and more!